LOG455 EGPF-EGPR

Flight info

Callsign LOG455
Flight time 0h 47m
Altitude 10000
Route TIR
Aircraft DHC6/L-SDFGR/C

Departure

Time 2026-04-22 21:10
Airport Glasgow Airport (EGPF)

Arrival

Time 2026-04-22 21:58
Airport Barra Airport (EGPR)
Time Latitude Longitude Altitude Speed Heading
2026-04-22 20:45 55.86567 -4.42993 29 ft 0 kts 254°
2026-04-22 21:03 55.86562 -4.42995 29 ft 1 kts 139°
2026-04-22 21:03 55.86564 -4.42972 30 ft 4 kts 65°
2026-04-22 21:03 55.86653 -4.42908 30 ft 20 kts 343°
2026-04-22 21:03 55.86735 -4.42935 29 ft 9 kts 332°
2026-04-22 21:04 55.86751 -4.42954 29 ft 0 kts 327°
2026-04-22 21:04 55.86772 -4.42972 29 ft 7 kts 344°
2026-04-22 21:04 55.86831 -4.43011 29 ft 11 kts 322°
2026-04-22 21:04 55.86823 -4.43147 29 ft 13 kts 255°
2026-04-22 21:05 55.86793 -4.43315 29 ft 16 kts 252°
2026-04-22 21:05 55.86765 -4.43514 29 ft 17 kts 252°
2026-04-22 21:05 55.86733 -4.43731 29 ft 11 kts 298°
2026-04-22 21:05 55.86748 -4.43759 29 ft 0 kts 330°
2026-04-22 21:08 55.86750 -4.43760 29 ft 2 kts 330°
2026-04-22 21:08 55.86789 -4.43763 28 ft 8 kts 21°
2026-04-22 21:08 55.86843 -4.43731 29 ft 8 kts 19°
2026-04-22 21:09 55.86895 -4.43698 30 ft 8 kts 19°
2026-04-22 21:09 55.86943 -4.43669 32 ft 6 kts 21°
2026-04-22 21:09 55.86975 -4.43654 34 ft 5 kts 353°
2026-04-22 21:09 55.87052 -4.43584 35 ft 30 kts 46°
2026-04-22 21:10 55.87363 -4.43003 56 ft 92 kts 56°
2026-04-22 21:10 55.87847 -4.42093 350 ft 113 kts 51°
2026-04-22 21:10 55.88439 -4.41140 744 ft 120 kts 34°
2026-04-22 21:10 55.89243 -4.40512 1047 ft 131 kts 33°
2026-04-22 21:11 55.90115 -4.39966 1337 ft 145 kts
2026-04-22 21:11 55.91095 -4.40753 1566 ft 166 kts 324°
2026-04-22 21:11 55.91637 -4.42568 1967 ft 170 kts 283°
2026-04-22 21:11 55.91660 -4.44650 2434 ft 166 kts 268°
2026-04-22 21:12 55.91608 -4.46692 2873 ft 163 kts 265°
2026-04-22 21:12 55.91537 -4.48648 3315 ft 154 kts 262°
2026-04-22 21:12 55.91466 -4.50530 3785 ft 149 kts 261°
2026-04-22 21:12 55.91519 -4.52353 4221 ft 150 kts 288°
2026-04-22 21:13 55.91967 -4.54013 4598 ft 149 kts 296°
2026-04-22 21:13 55.92451 -4.55606 5040 ft 145 kts 297°
2026-04-22 21:13 55.92938 -4.57155 5421 ft 142 kts 298°
2026-04-22 21:13 55.93425 -4.58668 5789 ft 139 kts 297°
2026-04-22 21:14 55.93891 -4.60160 6171 ft 136 kts 294°
2026-04-22 21:14 55.94288 -4.61684 6530 ft 137 kts 290°
2026-04-22 21:14 55.94667 -4.63264 6850 ft 141 kts 290°
2026-04-22 21:14 55.95071 -4.64876 7150 ft 144 kts 291°
2026-04-22 21:15 55.95499 -4.66501 7443 ft 146 kts 291°
2026-04-22 21:15 55.95925 -4.68146 7737 ft 146 kts 291°
2026-04-22 21:15 55.96346 -4.69805 8032 ft 147 kts 290°
2026-04-22 21:15 55.96767 -4.71464 8341 ft 147 kts 290°
2026-04-22 21:16 55.97192 -4.73129 8627 ft 149 kts 291°
2026-04-22 21:16 55.97625 -4.74827 8887 ft 152 kts 290°
2026-04-22 21:16 55.98066 -4.76555 9145 ft 154 kts 290°
2026-04-22 21:16 55.98511 -4.78301 9409 ft 155 kts 291°
2026-04-22 21:17 55.98958 -4.80061 9715 ft 156 kts 290°
2026-04-22 21:17 55.99416 -4.81860 9888 ft 163 kts 290°
2026-04-22 21:17 55.99896 -4.83765 9981 ft 173 kts 291°
2026-04-22 21:17 56.00404 -4.85754 10000 ft 178 kts 291°
2026-04-22 21:18 56.00925 -4.87795 9994 ft 183 kts 291°
2026-04-22 21:18 56.01453 -4.89879 9992 ft 185 kts 291°
2026-04-22 21:18 56.01982 -4.91975 9989 ft 186 kts 291°
2026-04-22 21:18 56.02513 -4.94083 9996 ft 186 kts 291°
2026-04-22 21:19 56.03048 -4.96199 9991 ft 187 kts 291°
2026-04-22 21:19 56.03584 -4.98314 9983 ft 186 kts 291°
2026-04-22 21:19 56.04115 -5.00425 9980 ft 186 kts 291°
2026-04-22 21:19 56.04646 -5.02536 10031 ft 187 kts 291°
2026-04-22 21:20 56.05184 -5.04664 10016 ft 188 kts 291°
2026-04-22 21:20 56.05720 -5.06806 10004 ft 189 kts 291°
2026-04-22 21:20 56.06260 -5.08950 10004 ft 189 kts 291°
2026-04-22 21:20 56.06797 -5.11093 9982 ft 189 kts 291°
2026-04-22 21:21 56.07334 -5.13231 9987 ft 188 kts 291°
2026-04-22 21:21 56.07868 -5.15361 9982 ft 187 kts 290°
2026-04-22 21:21 56.08399 -5.17488 9981 ft 187 kts 291°
2026-04-22 21:21 56.08931 -5.19618 9979 ft 188 kts 291°
2026-04-22 21:22 56.09463 -5.21752 9975 ft 188 kts 291°
2026-04-22 21:22 56.09998 -5.23889 9968 ft 188 kts 291°
2026-04-22 21:22 56.10524 -5.25995 9968 ft 187 kts 291°
2026-04-22 21:22 56.11054 -5.28124 9989 ft 187 kts 291°
2026-04-22 21:23 56.11583 -5.30261 9977 ft 188 kts 290°
2026-04-22 21:23 56.12116 -5.32401 9990 ft 188 kts 291°
2026-04-22 21:23 56.12648 -5.34541 9982 ft 188 kts 290°
2026-04-22 21:23 56.13180 -5.36689 9992 ft 189 kts 291°
2026-04-22 21:24 56.13715 -5.38842 9987 ft 189 kts 291°
2026-04-22 21:24 56.14246 -5.40988 9969 ft 188 kts 291°
2026-04-22 21:24 56.14774 -5.43123 9966 ft 187 kts 291°
2026-04-22 21:24 56.15301 -5.45257 9960 ft 187 kts 291°
2026-04-22 21:25 56.15825 -5.47385 9978 ft 187 kts 291°
2026-04-22 21:25 56.16357 -5.49531 10004 ft 189 kts 291°
2026-04-22 21:25 56.16888 -5.51693 9994 ft 190 kts 291°
2026-04-22 21:25 56.17420 -5.53859 9975 ft 189 kts 291°
2026-04-22 21:26 56.17953 -5.56017 9972 ft 189 kts 290°
2026-04-22 21:26 56.18484 -5.58180 9958 ft 189 kts 290°
2026-04-22 21:26 56.19012 -5.60338 9954 ft 188 kts 290°
2026-04-22 21:26 56.19540 -5.62487 9958 ft 188 kts 290°
2026-04-22 21:27 56.20066 -5.64635 9980 ft 188 kts 290°
2026-04-22 21:27 56.20594 -5.66790 9973 ft 189 kts 290°
2026-04-22 21:27 56.21120 -5.68948 9961 ft 189 kts 290°
2026-04-22 21:27 56.21648 -5.71108 9983 ft 189 kts 290°
2026-04-22 21:28 56.22177 -5.73274 9968 ft 189 kts 290°
2026-04-22 21:28 56.22704 -5.75438 9959 ft 189 kts 290°
2026-04-22 21:28 56.23229 -5.77595 9956 ft 188 kts 290°
2026-04-22 21:28 56.23752 -5.79748 9957 ft 188 kts 290°
2026-04-22 21:29 56.24276 -5.81896 9956 ft 187 kts 290°
2026-04-22 21:29 56.24795 -5.84041 9951 ft 187 kts 290°
2026-04-22 21:29 56.25316 -5.86188 9953 ft 187 kts 290°
2026-04-22 21:29 56.25837 -5.88335 9952 ft 187 kts 290°
2026-04-22 21:30 56.26356 -5.90483 9951 ft 187 kts 290°
2026-04-22 21:30 56.26700 -5.91907 9951 ft 187 kts 290°
2026-04-22 21:30 56.27219 -5.94048 9968 ft 186 kts 290°
2026-04-22 21:30 56.27732 -5.96180 9987 ft 186 kts 289°
2026-04-22 21:31 56.28246 -5.98311 9991 ft 186 kts 290°
2026-04-22 21:31 56.28761 -6.00443 9997 ft 186 kts 290°
2026-04-22 21:31 56.29275 -6.02583 9995 ft 186 kts 289°
2026-04-22 21:31 56.29790 -6.04727 10048 ft 187 kts 289°
2026-04-22 21:32 56.30310 -6.06892 10046 ft 190 kts 289°
2026-04-22 21:32 56.30836 -6.09081 10045 ft 191 kts 289°
2026-04-22 21:32 56.31366 -6.11282 10058 ft 192 kts 289°
2026-04-22 21:32 56.31891 -6.13487 10057 ft 192 kts 289°
2026-04-22 21:33 56.32421 -6.15700 10048 ft 192 kts 289°
2026-04-22 21:33 56.32952 -6.17911 10004 ft 192 kts 289°
2026-04-22 21:33 56.33471 -6.20106 9999 ft 189 kts 289°
2026-04-22 21:33 56.33991 -6.22279 9999 ft 188 kts 289°
2026-04-22 21:34 56.34509 -6.24439 10024 ft 188 kts 289°
2026-04-22 21:34 56.35023 -6.26606 10004 ft 188 kts 289°
2026-04-22 21:34 56.35537 -6.28770 10001 ft 188 kts 289°
2026-04-22 21:34 56.36051 -6.30926 9997 ft 187 kts 289°
2026-04-22 21:35 56.36562 -6.33080 9993 ft 187 kts 289°
2026-04-22 21:35 56.37071 -6.35235 9992 ft 187 kts 289°
2026-04-22 21:35 56.37581 -6.37387 9992 ft 187 kts 289°
2026-04-22 21:35 56.38091 -6.39537 9991 ft 187 kts 289°
2026-04-22 21:36 56.38599 -6.41692 9996 ft 186 kts 289°
2026-04-22 21:36 56.39106 -6.43843 9995 ft 186 kts 289°
2026-04-22 21:36 56.39607 -6.45963 9998 ft 186 kts 289°
2026-04-22 21:36 56.40122 -6.48142 10002 ft 186 kts 289°
2026-04-22 21:37 56.40629 -6.50296 9996 ft 186 kts 289°
2026-04-22 21:37 56.41134 -6.52451 10000 ft 186 kts 289°
2026-04-22 21:37 56.41635 -6.54577 9998 ft 186 kts 289°
2026-04-22 21:37 56.42140 -6.56729 9996 ft 186 kts 289°
2026-04-22 21:38 56.42644 -6.58882 9996 ft 186 kts 288°
2026-04-22 21:38 56.43150 -6.61039 9998 ft 186 kts 288°
2026-04-22 21:38 56.43654 -6.63196 9992 ft 186 kts 288°
2026-04-22 21:38 56.44159 -6.65353 9994 ft 186 kts 288°
2026-04-22 21:39 56.44663 -6.67512 9998 ft 186 kts 288°
2026-04-22 21:39 56.45167 -6.69671 9995 ft 186 kts 288°
2026-04-22 21:39 56.45670 -6.71828 9995 ft 186 kts 288°
2026-04-22 21:39 56.46173 -6.73987 9995 ft 186 kts 288°
2026-04-22 21:40 56.46675 -6.76147 9996 ft 186 kts 288°
2026-04-22 21:40 56.47177 -6.78306 9994 ft 186 kts 288°
2026-04-22 21:40 56.47679 -6.80468 9995 ft 187 kts 288°
2026-04-22 21:40 56.48181 -6.82635 9997 ft 187 kts 288°
2026-04-22 21:41 56.48743 -6.84746 9995 ft 187 kts 298°
2026-04-22 21:41 56.49575 -6.86567 10013 ft 189 kts 311°
2026-04-22 21:41 56.50555 -6.88190 10046 ft 192 kts 318°
2026-04-22 21:41 56.51614 -6.89698 10023 ft 194 kts 321°
2026-04-22 21:42 56.52707 -6.91142 10029 ft 195 kts 325°
2026-04-22 21:42 56.53877 -6.92384 10018 ft 195 kts 330°
2026-04-22 21:42 56.55064 -6.93579 10003 ft 195 kts 330°
2026-04-22 21:42 56.56229 -6.94815 9998 ft 194 kts 328°
2026-04-22 21:43 56.57387 -6.96054 9996 ft 193 kts 329°
2026-04-22 21:43 56.58547 -6.97277 9995 ft 193 kts 329°
2026-04-22 21:43 56.59707 -6.98496 9994 ft 192 kts 329°
2026-04-22 21:43 56.60862 -6.99716 9994 ft 192 kts 329°
2026-04-22 21:44 56.62034 -7.00960 9825 ft 200 kts 329°
2026-04-22 21:44 56.63261 -7.02260 9555 ft 208 kts 329°
2026-04-22 21:44 56.64466 -7.03530 9296 ft 199 kts 329°
2026-04-22 21:44 56.65642 -7.04780 9029 ft 194 kts 329°
2026-04-22 21:45 56.66799 -7.06010 8764 ft 191 kts 329°
2026-04-22 21:45 56.67943 -7.07225 8512 ft 190 kts 329°
2026-04-22 21:45 56.69084 -7.08431 8257 ft 189 kts 329°
2026-04-22 21:45 56.70217 -7.09639 7998 ft 189 kts 329°
2026-04-22 21:46 56.71348 -7.10843 7758 ft 188 kts 329°
2026-04-22 21:46 56.72479 -7.12045 7510 ft 188 kts 329°
2026-04-22 21:46 56.73604 -7.13245 7260 ft 187 kts 329°
2026-04-22 21:46 56.74729 -7.14444 7012 ft 187 kts 329°
2026-04-22 21:47 56.75852 -7.15641 6764 ft 187 kts 329°
2026-04-22 21:47 56.76970 -7.16839 6503 ft 186 kts 329°
2026-04-22 21:47 56.78086 -7.18031 6248 ft 185 kts 329°
2026-04-22 21:47 56.79198 -7.19216 5989 ft 185 kts 329°
2026-04-22 21:48 56.80301 -7.20398 5731 ft 184 kts 330°
2026-04-22 21:48 56.81401 -7.21574 5479 ft 183 kts 330°
2026-04-22 21:48 56.82498 -7.22747 5220 ft 182 kts 330°
2026-04-22 21:48 56.83589 -7.23918 4958 ft 181 kts 330°
2026-04-22 21:49 56.84675 -7.25082 4698 ft 181 kts 330°
2026-04-22 21:49 56.85755 -7.26242 4439 ft 180 kts 330°
2026-04-22 21:49 56.86856 -7.27286 4179 ft 178 kts 336°
2026-04-22 21:49 56.87975 -7.28238 3927 ft 177 kts 338°
2026-04-22 21:50 56.89098 -7.29169 3672 ft 177 kts 338°
2026-04-22 21:50 56.90218 -7.30088 3410 ft 176 kts 338°
2026-04-22 21:50 56.91340 -7.30999 3149 ft 176 kts 338°
2026-04-22 21:50 56.92458 -7.31903 2892 ft 176 kts 338°
2026-04-22 21:51 56.93575 -7.32805 2624 ft 175 kts 338°
2026-04-22 21:51 56.94694 -7.33703 2376 ft 176 kts 338°
2026-04-22 21:51 56.95814 -7.34599 2115 ft 176 kts 338°
2026-04-22 21:52 56.98050 -7.36376 1596 ft 174 kts 338°
2026-04-22 21:52 56.99158 -7.37253 1333 ft 172 kts 338°
2026-04-22 21:52 57.00213 -7.38088 1184 ft 152 kts 338°
2026-04-22 21:52 57.01095 -7.38799 1089 ft 122 kts 338°
2026-04-22 21:53 57.01768 -7.39353 1015 ft 99 kts 338°
2026-04-22 21:53 57.02446 -7.39922 1013 ft 113 kts 338°
2026-04-22 21:53 57.03184 -7.40527 1016 ft 122 kts 338°
2026-04-22 21:53 57.03978 -7.41177 1011 ft 123 kts 338°
2026-04-22 21:54 57.04724 -7.41775 1005 ft 115 kts 338°
2026-04-22 21:54 57.05429 -7.42352 1007 ft 104 kts 338°
2026-04-22 21:54 57.05973 -7.43032 933 ft 99 kts 294°
2026-04-22 21:54 57.06036 -7.44334 972 ft 104 kts 259°
2026-04-22 21:55 57.05913 -7.45635 989 ft 101 kts 253°
2026-04-22 21:55 57.05760 -7.46885 994 ft 102 kts 252°
2026-04-22 21:55 57.05590 -7.48174 997 ft 106 kts 251°
2026-04-22 21:55 57.05405 -7.49491 994 ft 106 kts 248°
2026-04-22 21:56 57.04978 -7.50563 936 ft 99 kts 207°
2026-04-22 21:56 57.04370 -7.50705 540 ft 95 kts 158°
2026-04-22 21:56 57.03883 -7.50022 277 ft 81 kts 129°
2026-04-22 21:56 57.03536 -7.49192 225 ft 82 kts 126°
2026-04-22 21:57 57.03190 -7.48387 269 ft 83 kts 126°
2026-04-22 21:57 57.02865 -7.47531 286 ft 76 kts 120°
2026-04-22 21:57 57.02648 -7.46723 208 ft 69 kts 110°
2026-04-22 21:57 57.02517 -7.45820 167 ft 77 kts 106°
2026-04-22 21:58 57.02454 -7.44847 27 ft 71 kts 91°
2026-04-22 21:58 57.02447 -7.44302 5 ft 5 kts 80°
2026-04-22 21:58 57.02569 -7.44388 4 ft 31 kts 294°
2026-04-22 21:58 57.02546 -7.44758 6 ft 22 kts 243°
2026-04-22 21:59 57.02517 -7.44825 7 ft 0 kts 212°